createdAt,value
2022-09-20T00:01:36.629Z,3.73
2022-09-20T00:04:03.221Z,3.70
2022-09-20T00:06:29.716Z,3.30
2022-09-20T00:08:56.262Z,3.70
2022-09-20T00:11:22.814Z,4.97
2022-09-20T00:13:49.329Z,3.63
2022-09-20T00:16:15.859Z,4.37
2022-09-20T00:18:42.445Z,4.80
2022-09-20T00:21:08.926Z,4.80
2022-09-20T00:23:35.495Z,6.10
2022-09-20T00:26:02.011Z,6.77
2022-09-20T00:28:28.562Z,5.73
2022-09-20T00:30:55.107Z,5.23
2022-09-20T00:33:21.643Z,5.27
2022-09-20T00:35:48.186Z,6.90
2022-09-20T00:38:14.713Z,6.83
2022-09-20T00:40:41.244Z,5.43
2022-09-20T00:43:07.773Z,7.10
2022-09-20T00:45:34.319Z,5.63
2022-09-20T00:48:00.914Z,5.83
2022-09-20T00:50:27.426Z,6.47
2022-09-20T00:52:53.921Z,6.97
2022-09-20T00:55:20.439Z,7.60
2022-09-20T00:57:46.949Z,7.80
2022-09-20T01:00:13.450Z,8.43
2022-09-20T01:02:40.044Z,10.10
2022-09-20T01:05:06.664Z,9.70
2022-09-20T01:07:33.178Z,7.57
2022-09-20T01:09:59.672Z,5.37
2022-09-20T01:12:26.217Z,3.43
2022-09-20T01:14:52.734Z,5.40
2022-09-20T01:17:19.255Z,5.03
2022-09-20T01:19:45.827Z,5.07
2022-09-20T01:22:12.407Z,4.13
2022-09-20T01:24:38.926Z,4.93
2022-09-20T01:27:05.466Z,3.63
2022-09-20T01:29:31.990Z,6.03
2022-09-20T01:31:58.583Z,5.07
2022-09-20T01:34:25.218Z,6.47
2022-09-20T01:36:51.713Z,4.43
2022-09-20T01:39:18.220Z,6.07
2022-09-20T01:41:44.820Z,3.20
2022-09-20T01:44:11.355Z,4.40
2022-09-20T01:46:37.903Z,4.03
2022-09-20T01:49:04.548Z,4.73
2022-09-20T01:51:31.069Z,4.57
2022-09-20T01:53:57.606Z,4.30
2022-09-20T01:56:24.143Z,4.67
2022-09-20T01:59:07.222Z,4.30
2022-09-20T02:01:37.261Z,3.63
2022-09-20T02:04:03.826Z,3.33
2022-09-20T02:06:30.439Z,3.70
2022-09-20T02:08:56.965Z,3.57
2022-09-20T02:11:23.463Z,4.23
2022-09-20T02:13:50.022Z,4.40
2022-09-20T02:16:16.624Z,3.90
2022-09-20T02:18:43.248Z,3.63
2022-09-20T02:21:09.735Z,3.33
2022-09-20T02:23:36.210Z,3.67
2022-09-20T02:26:02.762Z,3.17
2022-09-20T02:28:29.256Z,2.67
2022-09-20T02:30:55.777Z,3.17
2022-09-20T02:33:22.351Z,3.13
2022-09-20T02:35:48.869Z,2.50
2022-09-20T02:38:15.342Z,3.40
2022-09-20T02:40:41.972Z,5.10
2022-09-20T02:43:08.575Z,3.20
2022-09-20T02:45:35.095Z,3.07
2022-09-20T02:48:01.671Z,3.73
2022-09-20T02:50:28.156Z,3.27
2022-09-20T02:52:54.694Z,3.60
2022-09-20T02:55:21.272Z,3.53
2022-09-20T02:57:47.752Z,3.07
2022-09-20T03:00:14.330Z,3.63
2022-09-20T03:02:40.915Z,4.27
2022-09-20T03:05:07.477Z,3.87
2022-09-20T03:07:33.980Z,3.50
2022-09-20T03:10:00.469Z,4.37
2022-09-20T03:12:26.979Z,3.40
2022-09-20T03:14:53.496Z,3.47
2022-09-20T03:17:20.017Z,3.53
2022-09-20T03:19:46.516Z,4.60
2022-09-20T03:22:13.021Z,4.03
2022-09-20T03:24:39.543Z,5.50
2022-09-20T03:27:06.068Z,6.63
2022-09-20T03:29:32.594Z,5.93
2022-09-20T03:31:59.165Z,6.97
2022-09-20T03:34:25.744Z,4.37
2022-09-20T03:36:52.310Z,4.00
2022-09-20T03:39:18.821Z,3.70
2022-09-20T03:41:45.349Z,4.67
2022-09-20T03:44:11.885Z,5.47
2022-09-20T03:46:38.367Z,5.07
2022-09-20T03:49:04.851Z,6.70
2022-09-20T03:51:34.097Z,5.87
2022-09-20T03:54:00.964Z,6.70
2022-09-20T03:56:27.436Z,8.33
2022-09-20T03:58:53.968Z,5.50
2022-09-20T04:01:20.613Z,6.63
2022-09-20T04:03:47.182Z,6.87
2022-09-20T04:06:13.698Z,7.50
2022-09-20T04:08:40.555Z,8.87
2022-09-20T04:11:07.086Z,8.47
2022-09-20T04:13:33.590Z,9.13
2022-09-20T04:16:00.116Z,6.10
2022-09-20T04:18:26.746Z,6.10
2022-09-20T04:20:53.260Z,7.00
2022-09-20T04:23:20.975Z,6.93
2022-09-20T04:25:47.444Z,6.50
2022-09-20T04:28:13.970Z,7.13
2022-09-20T04:30:40.562Z,8.57
2022-09-20T04:33:07.163Z,8.53
2022-09-20T04:35:33.717Z,8.53
2022-09-20T04:38:00.308Z,7.90
2022-09-20T04:40:26.933Z,7.43
2022-09-20T04:42:53.603Z,7.97
2022-09-20T04:45:20.125Z,10.70
2022-09-20T04:47:46.660Z,7.50
2022-09-20T04:50:13.150Z,8.13
2022-09-20T04:52:39.726Z,8.87
2022-09-20T04:55:06.254Z,7.07
2022-09-20T04:57:32.797Z,7.40
2022-09-20T04:59:59.331Z,8.83
2022-09-20T05:02:25.875Z,8.63
2022-09-20T05:04:52.469Z,8.97
2022-09-20T05:07:18.941Z,9.93
2022-09-20T05:09:45.446Z,10.67
2022-09-20T05:12:11.939Z,7.87
2022-09-20T05:14:38.477Z,8.17
2022-09-20T05:17:05.016Z,7.97
2022-09-20T05:19:31.595Z,10.87
2022-09-20T05:21:58.118Z,7.57
2022-09-20T05:24:24.829Z,7.93
2022-09-20T05:26:51.355Z,8.33
2022-09-20T05:29:17.838Z,7.13
2022-09-20T05:31:44.383Z,9.30
2022-09-20T05:34:10.907Z,8.93
2022-09-20T05:36:37.435Z,9.23
2022-09-20T05:39:04.003Z,9.13
2022-09-20T05:41:30.564Z,8.00
2022-09-20T05:43:57.072Z,6.93
2022-09-20T05:46:23.593Z,8.43
2022-09-20T05:48:50.142Z,6.70
2022-09-20T05:51:16.728Z,9.87
2022-09-20T05:53:43.363Z,9.23
2022-09-20T05:56:09.907Z,10.57
2022-09-20T05:58:36.445Z,7.13
2022-09-20T06:01:03.035Z,6.60
2022-09-20T06:03:29.616Z,4.33
2022-09-20T06:05:56.088Z,3.77
2022-09-20T06:08:22.655Z,4.23
2022-09-20T06:10:49.147Z,4.27
2022-09-20T06:13:15.632Z,3.13
2022-09-20T06:15:42.145Z,2.93
2022-09-20T06:18:08.704Z,3.03
2022-09-20T06:20:35.341Z,2.47
2022-09-20T06:23:01.873Z,2.23
2022-09-20T06:25:28.419Z,1.73
2022-09-20T06:27:54.955Z,2.10
2022-09-20T06:30:21.563Z,2.97
2022-09-20T06:32:48.123Z,2.23
2022-09-20T06:35:14.659Z,2.10
2022-09-20T06:37:41.127Z,2.10
2022-09-20T06:40:07.768Z,1.73
2022-09-20T06:42:34.383Z,3.57
2022-09-20T06:45:01.126Z,2.77
2022-09-20T06:47:27.604Z,3.67
2022-09-20T06:49:54.156Z,4.07
2022-09-20T06:52:20.684Z,4.93
2022-09-20T06:54:47.196Z,3.93
2022-09-20T06:57:13.727Z,4.40
2022-09-20T06:59:40.258Z,5.83
2022-09-20T07:02:06.842Z,4.13
2022-09-20T07:04:33.460Z,3.83
2022-09-20T07:06:59.945Z,4.83
2022-09-20T07:09:26.459Z,3.87
2022-09-20T07:11:53.034Z,5.17
2022-09-20T07:14:19.571Z,4.83
2022-09-20T07:16:46.117Z,5.10
2022-09-20T07:19:12.652Z,5.83
2022-09-20T07:21:39.315Z,4.60
2022-09-20T07:24:05.842Z,5.30
2022-09-20T07:26:32.386Z,4.07
2022-09-20T07:28:58.951Z,1.27
2022-09-20T07:31:25.527Z,1.60
2022-09-20T07:33:52.152Z,4.37
2022-09-20T07:36:18.633Z,6.47
2022-09-20T07:38:45.161Z,0.83
2022-09-20T07:41:11.705Z,1.10
2022-09-20T07:43:38.259Z,2.00
2022-09-20T07:46:04.844Z,2.27
2022-09-20T07:48:31.393Z,1.43
2022-09-20T07:50:57.892Z,1.20
2022-09-20T07:53:24.453Z,0.83
2022-09-20T07:55:50.991Z,1.83
2022-09-20T07:58:17.500Z,1.70
2022-09-20T08:00:44.217Z,1.40
2022-09-20T08:03:10.744Z,1.40
2022-09-20T08:05:37.249Z,1.80
2022-09-20T08:08:03.714Z,1.13
2022-09-20T08:10:30.182Z,1.80
2022-09-20T08:15:43.289Z,1.37
2022-09-20T08:18:09.864Z,0.93
2022-09-20T08:20:36.388Z,1.13
2022-09-20T08:23:22.560Z,2.30
2022-09-20T08:25:49.361Z,1.30
2022-09-20T08:28:15.886Z,0.70
2022-09-20T08:30:42.371Z,2.93
2022-09-20T08:33:08.962Z,1.63
2022-09-20T08:35:38.258Z,0.53
2022-09-20T08:40:51.733Z,1.23
2022-09-20T08:43:22.413Z,1.87
2022-09-20T08:45:49.257Z,0.77
2022-09-20T08:48:15.826Z,0.90
2022-09-20T08:50:42.395Z,0.93
2022-09-20T08:53:09.050Z,1.23
2022-09-20T08:55:37.062Z,1.27
2022-09-20T08:58:08.141Z,2.27
2022-09-20T09:00:35.225Z,0.70
2022-09-20T09:03:01.709Z,1.43
2022-09-20T09:05:28.219Z,1.17
2022-09-20T09:07:55.027Z,3.07
2022-09-20T09:10:21.557Z,2.20
2022-09-20T09:12:48.658Z,1.27
2022-09-20T09:15:17.615Z,1.00
2022-09-20T09:17:44.396Z,1.00
2022-09-20T09:20:10.880Z,1.90
2022-09-20T09:22:37.491Z,4.13
2022-09-20T09:25:04.008Z,2.93
2022-09-20T09:27:30.543Z,1.87
2022-09-20T09:29:57.070Z,2.90
2022-09-20T09:32:23.608Z,1.60
2022-09-20T09:34:50.121Z,1.23
2022-09-20T09:37:16.644Z,2.00
2022-09-20T09:39:43.148Z,2.47
2022-09-20T09:42:09.661Z,2.40
2022-09-20T09:44:36.146Z,1.10
2022-09-20T09:47:02.838Z,1.90
2022-09-20T09:49:29.378Z,2.77
2022-09-20T09:51:55.874Z,1.37
2022-09-20T09:54:22.424Z,1.73
2022-09-20T09:56:48.998Z,2.87
2022-09-20T09:59:15.517Z,0.40
2022-09-20T10:01:42.194Z,0.93
2022-09-20T10:04:08.797Z,0.87
2022-09-20T10:06:35.467Z,1.03
2022-09-20T10:09:02.074Z,1.53
2022-09-20T10:11:28.600Z,1.00
2022-09-20T10:13:55.166Z,5.60
2022-09-20T10:16:21.746Z,1.67
2022-09-20T10:18:48.289Z,2.57
2022-09-20T10:21:14.925Z,1.93
2022-09-20T10:26:28.117Z,5.30
2022-09-20T10:28:54.626Z,1.33
2022-09-20T10:31:25.513Z,1.10
2022-09-20T10:33:52.394Z,2.77
2022-09-20T10:36:18.903Z,2.20
2022-09-20T10:38:45.375Z,0.70
2022-09-20T10:41:11.853Z,1.33
2022-09-20T10:43:38.459Z,0.80
2022-09-20T10:46:30.261Z,1.80
2022-09-20T10:48:51.418Z,1.07
2022-09-20T10:51:17.981Z,2.20
2022-09-20T10:53:44.454Z,1.40
2022-09-20T10:56:10.974Z,9.57
2022-09-20T10:58:37.522Z,2.73
2022-09-20T11:01:04.144Z,2.27
2022-09-20T11:03:30.716Z,1.60
2022-09-20T11:05:58.251Z,1.33
2022-09-20T11:08:24.761Z,1.83
2022-09-20T11:10:51.252Z,0.87
2022-09-20T11:13:17.776Z,1.50
2022-09-20T11:15:44.307Z,1.93
2022-09-20T11:18:10.864Z,1.03
2022-09-20T11:20:37.450Z,1.33
2022-09-20T11:23:03.933Z,1.73
2022-09-20T11:25:30.473Z,1.43
2022-09-20T11:27:56.952Z,2.07
2022-09-20T11:30:23.466Z,1.47
2022-09-20T11:32:49.993Z,1.17
2022-09-20T11:35:16.520Z,1.00
2022-09-20T11:37:43.060Z,2.23
2022-09-20T11:40:09.631Z,1.43
2022-09-20T11:42:36.208Z,2.67
2022-09-20T11:45:02.751Z,2.33
2022-09-20T11:47:52.527Z,1.10
2022-09-20T11:50:15.834Z,1.83
2022-09-20T11:52:42.356Z,3.40
2022-09-20T11:55:08.966Z,1.33
2022-09-20T11:57:35.473Z,1.70
2022-09-20T12:00:01.972Z,1.90
2022-09-20T12:02:28.569Z,2.10
2022-09-20T12:04:55.198Z,1.37
2022-09-20T12:07:21.701Z,1.77
2022-09-20T12:09:48.258Z,1.73
2022-09-20T12:12:14.748Z,1.90
2022-09-20T12:14:41.299Z,2.87
2022-09-20T12:17:07.826Z,0.77
2022-09-20T12:19:34.378Z,2.83
2022-09-20T12:22:00.895Z,2.13
2022-09-20T12:24:27.513Z,2.10
2022-09-20T12:26:54.020Z,1.50
2022-09-20T12:29:20.554Z,1.43
2022-09-20T12:31:47.211Z,0.57
2022-09-20T12:34:13.748Z,0.67
2022-09-20T12:36:40.274Z,0.43
2022-09-20T12:39:06.828Z,1.70
2022-09-20T12:41:33.369Z,0.40
2022-09-20T12:43:59.836Z,0.63
2022-09-20T12:46:26.433Z,3.43
2022-09-20T12:48:53.096Z,0.37
2022-09-20T12:51:19.605Z,1.40
2022-09-20T12:53:46.137Z,1.03
2022-09-20T12:56:12.672Z,0.50
2022-09-20T12:58:39.214Z,1.33
2022-09-20T13:01:08.413Z,0.60
2022-09-20T13:03:37.314Z,0.87
2022-09-20T13:06:03.826Z,1.43
2022-09-20T13:08:30.376Z,0.90
2022-09-20T13:10:56.906Z,1.67
2022-09-20T13:13:23.421Z,2.30
2022-09-20T13:15:49.931Z,1.77
2022-09-20T13:18:16.450Z,1.73
2022-09-20T13:20:43.022Z,1.33
2022-09-20T13:23:09.548Z,1.47
2022-09-20T13:25:36.026Z,0.67
2022-09-20T13:28:02.569Z,0.53
2022-09-20T13:30:29.118Z,1.57
2022-09-20T13:32:55.650Z,0.53
2022-09-20T13:35:22.172Z,0.93
2022-09-20T13:37:48.701Z,0.70
2022-09-20T13:40:15.285Z,1.17
2022-09-20T13:42:42.065Z,0.37
2022-09-20T13:45:08.623Z,2.00
2022-09-20T13:47:35.192Z,1.60
2022-09-20T13:50:01.729Z,1.20
2022-09-20T13:52:28.197Z,0.80
2022-09-20T13:54:54.759Z,0.60
2022-09-20T13:57:21.246Z,0.33
2022-09-20T13:59:47.749Z,2.00
2022-09-20T14:02:14.295Z,0.73
2022-09-20T14:04:40.908Z,1.13
2022-09-20T14:07:07.461Z,1.47
2022-09-20T14:09:34.019Z,0.53
2022-09-20T14:12:00.688Z,0.60
2022-09-20T14:14:27.191Z,0.60
2022-09-20T14:16:53.725Z,1.47
2022-09-20T14:19:20.271Z,0.80
2022-09-20T14:21:46.783Z,1.03
2022-09-20T14:24:14.856Z,1.33
2022-09-20T14:26:41.380Z,1.37
2022-09-20T14:29:07.889Z,2.17
2022-09-20T14:31:34.644Z,1.27
2022-09-20T14:34:01.188Z,0.20
2022-09-20T14:36:27.747Z,0.30
2022-09-20T14:38:54.317Z,1.10
2022-09-20T14:41:20.828Z,0.20
2022-09-20T14:43:47.346Z,0.27
2022-09-20T14:46:13.964Z,0.30
2022-09-20T14:48:40.476Z,0.50
2022-09-20T14:51:07.127Z,2.33
2022-09-20T14:53:33.747Z,2.13
2022-09-20T14:56:00.261Z,1.20
2022-09-20T14:58:26.772Z,0.97
2022-09-20T15:00:53.365Z,3.60
2022-09-20T15:03:19.970Z,3.27
2022-09-20T15:05:46.445Z,1.87
2022-09-20T15:08:13.009Z,1.13
2022-09-20T15:10:39.957Z,4.10
2022-09-20T15:13:06.491Z,1.03
2022-09-20T15:15:33.070Z,1.27
2022-09-20T15:18:02.499Z,1.63
2022-09-20T15:20:29.045Z,5.30
2022-09-20T15:22:55.590Z,4.93
2022-09-20T15:25:22.104Z,1.63
2022-09-20T15:27:48.640Z,2.87
2022-09-20T15:30:15.245Z,3.17
2022-09-20T15:32:43.884Z,5.90
2022-09-20T15:35:10.552Z,3.10
2022-09-20T15:37:37.025Z,2.90
2022-09-20T15:40:03.750Z,0.97
2022-09-20T15:42:30.350Z,0.40
2022-09-20T15:44:56.905Z,0.27
2022-09-20T15:47:23.435Z,0.30
2022-09-20T15:49:49.946Z,0.20
2022-09-20T15:52:16.565Z,1.60
2022-09-20T15:54:43.082Z,1.43
2022-09-20T15:57:09.652Z,0.33
2022-09-20T15:59:36.160Z,0.40
2022-09-20T16:02:02.721Z,1.50
2022-09-20T16:04:29.268Z,1.80
2022-09-20T16:06:55.830Z,0.57
2022-09-20T16:09:22.380Z,0.40
2022-09-20T16:11:48.889Z,1.37
2022-09-20T16:14:15.429Z,8.47
2022-09-20T16:16:42.015Z,11.53
2022-09-20T16:19:08.722Z,0.97
2022-09-20T16:21:35.295Z,1.20
2022-09-20T16:24:01.818Z,3.27
2022-09-20T16:26:28.363Z,3.27
2022-09-20T16:28:55.021Z,1.67
2022-09-20T16:31:21.578Z,1.10
2022-09-20T16:33:48.121Z,0.50
2022-09-20T16:36:14.654Z,3.47
2022-09-20T16:38:41.238Z,0.90
2022-09-20T16:41:07.716Z,0.60
2022-09-20T16:43:34.233Z,2.10
2022-09-20T16:46:00.899Z,2.30
2022-09-20T16:48:27.509Z,2.53
2022-09-20T16:50:54.053Z,1.90
2022-09-20T16:53:20.593Z,1.97
2022-09-20T16:55:47.105Z,1.77
2022-09-20T16:58:13.589Z,2.10
2022-09-20T17:00:40.148Z,1.03
2022-09-20T17:03:06.660Z,2.50
2022-09-20T17:05:33.208Z,0.73
2022-09-20T17:07:59.680Z,0.73
2022-09-20T17:10:26.237Z,0.40
2022-09-20T17:12:52.825Z,2.00
2022-09-20T17:15:19.346Z,1.77
2022-09-20T17:17:45.921Z,1.43
2022-09-20T17:20:12.402Z,0.60
2022-09-20T17:22:38.948Z,0.70
2022-09-20T17:25:05.521Z,2.93
2022-09-20T17:27:32.050Z,2.50
2022-09-20T17:29:58.740Z,2.53
2022-09-20T17:32:25.247Z,1.67
2022-09-20T17:34:51.886Z,3.53
2022-09-20T17:37:18.460Z,2.80
2022-09-20T17:39:44.947Z,3.87
2022-09-20T17:42:11.482Z,0.80
2022-09-20T17:44:37.998Z,1.50
2022-09-20T17:47:04.558Z,1.43
2022-09-20T17:49:31.135Z,3.23
2022-09-20T17:51:57.675Z,1.20
2022-09-20T17:54:24.166Z,1.20
2022-09-20T17:56:50.655Z,1.07
2022-09-20T17:59:17.166Z,2.07
2022-09-20T18:01:43.637Z,1.60
2022-09-20T18:04:10.172Z,2.03
2022-09-20T18:06:36.672Z,3.33
2022-09-20T18:09:03.194Z,1.90
2022-09-20T18:11:29.724Z,2.93
2022-09-20T18:13:56.293Z,5.03
2022-09-20T18:16:22.897Z,4.07
2022-09-20T18:18:49.433Z,5.13
2022-09-20T18:21:16.002Z,2.67
2022-09-20T18:23:42.481Z,1.20
2022-09-20T18:26:08.970Z,4.40
2022-09-20T18:28:35.588Z,1.87
2022-09-20T18:31:02.123Z,4.30
2022-09-20T18:33:28.728Z,1.40
2022-09-20T18:35:55.242Z,3.20
2022-09-20T18:38:21.774Z,5.57
2022-09-20T18:40:48.329Z,6.70
2022-09-20T18:43:14.871Z,18.30
2022-09-20T18:45:41.386Z,6.30
2022-09-20T18:48:07.915Z,8.97
2022-09-20T18:50:34.465Z,4.43
2022-09-20T18:53:00.978Z,2.73
2022-09-20T18:55:27.516Z,1.70
2022-09-20T18:57:57.141Z,3.77
2022-09-20T19:00:25.964Z,4.43
2022-09-20T19:02:52.507Z,3.37
2022-09-20T19:05:19.049Z,3.57
2022-09-20T19:07:45.623Z,3.30
2022-09-20T19:10:12.147Z,3.07
2022-09-20T19:12:38.798Z,5.07
2022-09-20T19:15:08.672Z,3.03
2022-09-20T19:17:35.271Z,5.43
2022-09-20T19:20:01.885Z,7.60
2022-09-20T19:22:28.470Z,7.50
2022-09-20T19:24:54.970Z,7.03
2022-09-20T19:27:21.452Z,7.97
2022-09-20T19:29:48.143Z,84.47
2022-09-20T19:32:14.709Z,44.27
2022-09-20T19:34:41.321Z,39.97
2022-09-20T19:37:07.848Z,46.43
2022-09-20T19:39:34.429Z,40.30
2022-09-20T19:42:00.996Z,20.93
2022-09-20T19:44:27.469Z,7.43
2022-09-20T19:46:55.080Z,8.13
2022-09-20T19:49:23.956Z,9.60
2022-09-20T19:51:50.484Z,10.73
2022-09-20T19:54:16.969Z,17.70
2022-09-20T19:56:43.450Z,22.47
2022-09-20T19:59:09.966Z,23.03
2022-09-20T20:01:36.517Z,33.80
2022-09-20T20:04:03.030Z,15.30
2022-09-20T20:06:29.572Z,27.37
2022-09-20T20:08:56.275Z,30.50
2022-09-20T20:11:22.809Z,101.83
2022-09-20T20:13:49.336Z,122.47
2022-09-20T20:16:15.921Z,119.93
2022-09-20T20:18:42.461Z,60.10
2022-09-20T20:21:08.980Z,59.13
2022-09-20T20:23:35.486Z,212.43
2022-09-20T20:26:02.055Z,112.33
2022-09-20T20:28:28.604Z,88.57
2022-09-20T20:30:59.668Z,60.87
2022-09-20T20:33:26.472Z,3.77
2022-09-20T20:35:53.002Z,6.20
2022-09-20T20:38:19.545Z,18.13
2022-09-20T20:40:46.075Z,7.63
2022-09-20T20:43:12.616Z,7.73
2022-09-20T20:45:39.105Z,15.47
2022-09-20T20:48:05.646Z,23.53
2022-09-20T20:50:32.132Z,21.37
2022-09-20T20:52:58.706Z,10.30
2022-09-20T20:55:25.194Z,14.53
2022-09-20T20:57:51.730Z,5.43
2022-09-20T21:00:18.260Z,7.50
2022-09-20T21:02:44.814Z,19.03
2022-09-20T21:05:11.363Z,46.13
2022-09-20T21:07:38.040Z,26.97
2022-09-20T21:10:04.555Z,17.70
2022-09-20T21:12:31.064Z,13.17
2022-09-20T21:14:57.603Z,20.63
2022-09-20T21:17:24.216Z,35.00
2022-09-20T21:19:50.712Z,128.43
2022-09-20T21:22:17.226Z,123.70
2022-09-20T21:24:43.742Z,76.57
2022-09-20T21:27:10.322Z,62.20
2022-09-20T21:29:36.793Z,47.70
2022-09-20T21:32:03.320Z,37.53
2022-09-20T21:34:30.810Z,17.83
2022-09-20T21:36:57.349Z,17.00
2022-09-20T21:39:23.888Z,21.53
2022-09-20T21:41:50.409Z,29.57
2022-09-20T21:44:16.930Z,29.87
2022-09-20T21:46:43.436Z,23.67
2022-09-20T21:49:09.935Z,26.03
2022-09-20T21:51:36.419Z,34.73
2022-09-20T21:54:02.916Z,49.40
2022-09-20T21:56:29.426Z,68.03
2022-09-20T21:58:55.953Z,40.00
2022-09-20T22:01:22.496Z,19.60
2022-09-20T22:03:49.064Z,16.30
2022-09-20T22:06:15.542Z,16.37
2022-09-20T22:08:42.076Z,33.57
2022-09-20T22:11:12.197Z,30.53
2022-09-20T22:13:41.251Z,26.97
2022-09-20T22:16:07.868Z,9.53
2022-09-20T22:18:34.418Z,28.57
2022-09-20T22:21:00.965Z,12.80
2022-09-20T22:23:27.428Z,13.33
2022-09-20T22:25:53.978Z,20.13
2022-09-20T22:28:20.484Z,8.93
2022-09-20T22:30:47.065Z,12.83
2022-09-20T22:33:13.604Z,9.03
2022-09-20T22:35:40.072Z,11.40
2022-09-20T22:38:06.767Z,14.50
2022-09-20T22:40:33.323Z,12.63
2022-09-20T22:42:59.881Z,62.17
2022-09-20T22:45:26.454Z,45.77
2022-09-20T22:47:52.982Z,19.80
2022-09-20T22:50:19.505Z,47.10
2022-09-20T22:52:46.069Z,38.10
2022-09-20T22:55:12.599Z,31.40
2022-09-20T22:57:39.129Z,40.77
2022-09-20T23:00:05.670Z,24.63
2022-09-20T23:02:32.232Z,17.63
2022-09-20T23:04:58.808Z,20.20
2022-09-20T23:07:25.295Z,27.63
2022-09-20T23:09:51.820Z,26.27
2022-09-20T23:12:18.365Z,20.13
2022-09-20T23:14:44.925Z,19.10
2022-09-20T23:17:11.458Z,55.50
2022-09-20T23:19:37.954Z,21.53
2022-09-20T23:22:04.492Z,22.20
2022-09-20T23:24:30.976Z,35.33
2022-09-20T23:26:57.554Z,17.93
2022-09-20T23:29:24.103Z,28.37
2022-09-20T23:31:50.638Z,15.43
2022-09-20T23:34:17.243Z,6.17
2022-09-20T23:36:43.880Z,42.60
2022-09-20T23:39:10.405Z,82.67
2022-09-20T23:41:36.984Z,53.10
2022-09-20T23:44:03.450Z,38.53
2022-09-20T23:46:29.982Z,26.80
2022-09-20T23:48:56.536Z,37.23
2022-09-20T23:51:23.058Z,13.80
2022-09-20T23:53:49.590Z,33.63
2022-09-20T23:56:16.123Z,12.10
2022-09-20T23:58:42.617Z,26.33
